createdAt,value
2023-01-22T00:01:21.968Z,2.20
2023-01-22T00:03:50.114Z,2.12
2023-01-22T00:06:18.092Z,2.11
2023-01-22T00:08:46.893Z,2.15
2023-01-22T00:11:16.618Z,2.18
2023-01-22T00:13:44.625Z,2.22
2023-01-22T00:16:15.414Z,2.17
2023-01-22T00:18:43.926Z,2.16
2023-01-22T00:21:13.115Z,2.18
2023-01-22T00:23:41.008Z,2.17
2023-01-22T00:26:15.647Z,2.12
2023-01-22T00:28:45.568Z,2.10
2023-01-22T00:31:16.230Z,2.10
2023-01-22T00:33:46.358Z,2.12
2023-01-22T00:36:17.318Z,2.12
2023-01-22T00:38:45.969Z,2.12
2023-01-22T00:41:15.290Z,2.11
2023-01-22T00:43:43.368Z,2.08
2023-01-22T00:46:16.095Z,2.07
2023-01-22T00:48:49.788Z,2.06
2023-01-22T00:51:17.974Z,2.09
2023-01-22T00:53:46.291Z,2.10
2023-01-22T00:56:15.339Z,2.11
2023-01-22T00:58:43.461Z,2.10
2023-01-22T01:01:14.498Z,2.09
2023-01-22T01:03:42.831Z,2.10
2023-01-22T01:06:16.075Z,2.09
2023-01-22T01:08:44.578Z,2.09
2023-01-22T01:11:22.159Z,2.08
2023-01-22T01:13:51.881Z,2.06
2023-01-22T01:16:26.865Z,2.07
2023-01-22T01:19:02.011Z,2.12
2023-01-22T01:21:30.687Z,2.17
2023-01-22T01:24:00.500Z,2.19
2023-01-22T01:26:29.117Z,2.22
2023-01-22T01:28:57.130Z,2.25
2023-01-22T01:31:26.525Z,2.23
2023-01-22T01:33:58.453Z,2.14
2023-01-22T01:39:14.438Z,2.20
2023-01-22T01:41:42.276Z,2.21
2023-01-22T01:44:15.461Z,2.20
2023-01-22T01:46:54.385Z,2.18
2023-01-22T01:49:31.822Z,2.20
2023-01-22T01:52:07.051Z,2.20
2023-01-22T01:54:36.222Z,2.19
2023-01-22T01:57:18.422Z,2.18
2023-01-22T01:59:47.714Z,2.23
2023-01-22T02:02:16.696Z,2.24
2023-01-22T02:04:44.669Z,2.28
2023-01-22T02:07:12.794Z,2.32
2023-01-22T02:09:40.961Z,2.27
2023-01-22T02:12:09.773Z,2.18
2023-01-22T02:14:41.482Z,2.14
2023-01-22T02:17:13.136Z,2.18
2023-01-22T02:19:42.145Z,2.15
2023-01-22T02:22:14.461Z,2.14
2023-01-22T02:24:42.381Z,2.16
2023-01-22T02:27:10.312Z,2.21
2023-01-22T02:29:38.454Z,2.25
2023-01-22T02:32:06.389Z,2.26
2023-01-22T02:34:36.581Z,2.25
2023-01-22T02:37:04.809Z,2.26
2023-01-22T02:39:32.940Z,2.26
2023-01-22T02:42:04.752Z,2.25
2023-01-22T02:44:32.998Z,2.24
2023-01-22T02:47:01.071Z,2.26
2023-01-22T02:49:29.054Z,2.23
2023-01-22T02:51:57.010Z,2.19
2023-01-22T02:54:25.180Z,2.20
2023-01-22T02:56:53.171Z,2.17
2023-01-22T02:59:21.114Z,2.16
2023-01-22T03:01:49.120Z,2.12
2023-01-22T03:04:17.271Z,2.07
2023-01-22T03:06:47.170Z,2.07
2023-01-22T03:09:17.741Z,2.09
2023-01-22T03:11:47.230Z,2.13
2023-01-22T03:14:39.489Z,2.20
2023-01-22T03:17:26.840Z,2.25
2023-01-22T03:20:13.568Z,2.24
2023-01-22T03:22:41.423Z,2.23
2023-01-22T03:25:09.458Z,2.23
2023-01-22T03:27:38.301Z,2.23
2023-01-22T03:30:06.748Z,2.24
2023-01-22T03:32:35.671Z,2.23
2023-01-22T03:35:03.840Z,2.19
2023-01-22T03:37:42.321Z,2.17
2023-01-22T03:40:11.263Z,2.16
2023-01-22T03:42:40.029Z,2.11
2023-01-22T03:45:10.062Z,2.12
2023-01-22T03:47:38.331Z,2.11
2023-01-22T03:50:18.994Z,2.10
2023-01-22T03:52:47.292Z,2.13
2023-01-22T03:55:15.211Z,2.15
2023-01-22T03:57:43.414Z,2.13
2023-01-22T04:00:13.007Z,2.12
2023-01-22T04:02:40.915Z,2.15
2023-01-22T04:05:15.130Z,2.15
2023-01-22T04:07:44.915Z,2.14
2023-01-22T04:10:13.446Z,2.14
2023-01-22T04:12:41.927Z,2.13
2023-01-22T04:15:12.503Z,2.11
2023-01-22T04:17:40.626Z,2.13
2023-01-22T04:20:27.075Z,2.15
2023-01-22T04:23:18.669Z,2.12
2023-01-22T04:25:47.066Z,2.11
2023-01-22T04:28:16.716Z,2.11
2023-01-22T04:30:47.871Z,2.10
2023-01-22T04:33:30.662Z,2.04
2023-01-22T04:36:11.952Z,1.98
2023-01-22T04:38:40.207Z,1.99
2023-01-22T04:41:09.654Z,2.05
2023-01-22T04:43:37.498Z,2.09
2023-01-22T04:46:05.565Z,2.08
2023-01-22T04:48:34.570Z,2.05
2023-01-22T04:51:02.484Z,2.05
2023-01-22T04:53:32.293Z,2.02
2023-01-22T04:56:01.224Z,2.01
2023-01-22T04:58:29.294Z,2.07
2023-01-22T05:00:59.882Z,2.08
2023-01-22T05:03:28.211Z,2.05
2023-01-22T05:05:56.770Z,2.07
2023-01-22T05:08:24.740Z,2.07
2023-01-22T05:10:52.540Z,2.04
2023-01-22T05:13:26.115Z,2.00
2023-01-22T05:15:54.276Z,2.01
2023-01-22T05:18:24.229Z,2.01
2023-01-22T05:20:52.972Z,2.02
2023-01-22T05:23:22.889Z,2.01
2023-01-22T05:25:51.299Z,1.98
2023-01-22T05:28:25.078Z,1.97
2023-01-22T05:31:19.677Z,1.95
2023-01-22T05:34:08.722Z,1.91
2023-01-22T05:36:36.637Z,1.90
2023-01-22T05:39:09.703Z,1.89
2023-01-22T05:41:37.835Z,1.85
2023-01-22T05:44:06.488Z,1.85
2023-01-22T05:46:34.331Z,1.88
2023-01-22T05:49:28.338Z,1.89
2023-01-22T05:51:57.912Z,1.90
2023-01-22T05:54:26.058Z,1.90
2023-01-22T05:56:54.023Z,1.90
2023-01-22T05:59:22.209Z,1.92
2023-01-22T06:01:56.526Z,1.89
2023-01-22T06:04:24.861Z,1.94
2023-01-22T06:06:53.195Z,1.98
2023-01-22T06:09:22.129Z,1.98
2023-01-22T06:11:51.495Z,2.00
2023-01-22T06:14:20.383Z,2.03
2023-01-22T06:16:49.856Z,2.01
2023-01-22T06:19:39.260Z,2.05
2023-01-22T06:22:07.401Z,2.06
2023-01-22T06:24:51.413Z,2.04
2023-01-22T06:27:20.038Z,2.05
2023-01-22T06:30:00.147Z,1.99
2023-01-22T06:32:28.570Z,1.97
2023-01-22T06:34:56.378Z,1.98
2023-01-22T06:37:24.426Z,1.95
2023-01-22T06:39:52.985Z,1.91
2023-01-22T06:42:28.157Z,1.93
2023-01-22T06:44:57.456Z,1.93
2023-01-22T06:47:27.134Z,1.98
2023-01-22T06:49:54.974Z,1.99
2023-01-22T06:52:22.879Z,2.02
2023-01-22T06:54:50.994Z,2.00
2023-01-22T06:57:19.079Z,2.01
2023-01-22T06:59:47.180Z,2.00
2023-01-22T07:02:19.168Z,2.02
2023-01-22T07:04:47.199Z,2.01
2023-01-22T07:07:15.427Z,2.04
2023-01-22T07:09:43.356Z,2.06
2023-01-22T07:12:11.221Z,2.08
2023-01-22T07:14:39.027Z,2.11
2023-01-22T07:17:06.904Z,2.12
2023-01-22T07:19:34.809Z,2.13
2023-01-22T07:22:02.740Z,2.12
2023-01-22T07:24:30.760Z,2.14
2023-01-22T07:26:58.571Z,2.10
2023-01-22T07:29:26.333Z,2.10
2023-01-22T07:31:54.476Z,2.05
2023-01-22T07:34:22.589Z,2.06
2023-01-22T07:36:50.502Z,2.09
2023-01-22T07:39:18.473Z,2.12
2023-01-22T07:41:46.311Z,2.13
2023-01-22T07:44:15.183Z,2.11
2023-01-22T07:46:43.045Z,2.16
2023-01-22T07:49:11.262Z,2.23
2023-01-22T07:51:40.668Z,2.22
2023-01-22T07:54:08.809Z,2.23
2023-01-22T07:56:36.629Z,2.19
2023-01-22T07:59:04.781Z,2.24
2023-01-22T08:01:32.559Z,2.30
2023-01-22T08:04:00.307Z,2.32
2023-01-22T08:06:28.088Z,2.31
2023-01-22T08:08:55.857Z,2.30
2023-01-22T08:11:23.647Z,2.31
2023-01-22T08:13:51.481Z,2.36
2023-01-22T08:16:19.319Z,2.37
2023-01-22T08:18:47.436Z,2.34
2023-01-22T08:21:15.193Z,2.31
2023-01-22T08:23:46.156Z,2.34
2023-01-22T08:26:15.734Z,2.33
2023-01-22T08:28:43.501Z,2.33
2023-01-22T08:31:26.240Z,2.34
2023-01-22T08:33:57.766Z,2.35
2023-01-22T08:36:26.015Z,2.36
2023-01-22T08:38:53.929Z,2.34
2023-01-22T08:41:22.887Z,2.32
2023-01-22T08:43:53.822Z,2.30
2023-01-22T08:46:21.746Z,2.30
2023-01-22T08:48:50.777Z,2.32
2023-01-22T08:51:18.711Z,2.31
2023-01-22T08:53:46.629Z,2.32
2023-01-22T08:56:14.555Z,2.27
2023-01-22T08:58:42.378Z,2.30
2023-01-22T09:01:17.656Z,2.32
2023-01-22T09:03:46.370Z,2.37
2023-01-22T09:06:14.440Z,2.39
2023-01-22T09:08:42.334Z,2.42
2023-01-22T09:11:10.461Z,2.43
2023-01-22T09:13:38.288Z,2.45
2023-01-22T09:16:10.932Z,2.47
2023-01-22T09:18:40.111Z,2.45
2023-01-22T09:21:08.643Z,2.49
2023-01-22T09:23:36.483Z,2.48
2023-01-22T09:26:04.479Z,2.51
2023-01-22T09:28:35.841Z,2.56
2023-01-22T09:31:04.836Z,2.60
2023-01-22T09:33:32.941Z,2.61
2023-01-22T09:36:09.972Z,2.61
2023-01-22T09:38:38.628Z,2.61
2023-01-22T09:41:27.858Z,2.63
2023-01-22T09:44:01.811Z,2.66
2023-01-22T09:46:36.519Z,2.65
2023-01-22T09:49:15.342Z,2.68
2023-01-22T09:51:47.189Z,2.73
2023-01-22T09:54:17.454Z,2.77
2023-01-22T09:56:51.018Z,2.75
2023-01-22T09:59:22.683Z,2.71
2023-01-22T10:01:56.240Z,2.69
2023-01-22T10:04:34.939Z,2.72
2023-01-22T10:07:06.709Z,2.74
2023-01-22T10:09:35.034Z,2.73
2023-01-22T10:12:12.947Z,2.74
2023-01-22T10:14:42.799Z,2.75
2023-01-22T10:17:21.526Z,2.68
2023-01-22T10:19:58.078Z,2.75
2023-01-22T10:22:27.262Z,2.77
2023-01-22T10:24:55.870Z,2.81
2023-01-22T10:27:41.377Z,2.88
2023-01-22T10:30:22.125Z,2.95
2023-01-22T10:33:01.580Z,2.98
2023-01-22T10:35:32.081Z,3.01
2023-01-22T10:38:01.121Z,3.00
2023-01-22T10:40:38.072Z,2.92
2023-01-22T10:43:14.088Z,2.91
2023-01-22T10:46:23.843Z,2.87
2023-01-22T10:49:03.344Z,2.90
2023-01-22T10:51:40.197Z,2.94
2023-01-22T10:54:21.859Z,2.97
2023-01-22T10:56:50.929Z,2.99
2023-01-22T10:59:28.152Z,2.94
2023-01-22T11:02:21.855Z,2.94
2023-01-22T11:04:51.389Z,2.97
2023-01-22T11:07:24.197Z,2.94
2023-01-22T11:09:56.426Z,2.94
2023-01-22T11:12:32.887Z,2.94
2023-01-22T11:15:17.982Z,2.94
2023-01-22T11:17:51.967Z,2.97
2023-01-22T11:20:44.962Z,3.02
2023-01-22T11:23:41.067Z,2.97
2023-01-22T11:26:25.832Z,3.02
2023-01-22T11:29:08.269Z,3.07
2023-01-22T11:31:56.301Z,3.08
2023-01-22T11:34:56.547Z,3.05
2023-01-22T11:37:38.124Z,3.02
2023-01-22T11:40:18.422Z,3.08
2023-01-22T11:43:11.732Z,3.12
2023-01-22T11:45:57.157Z,3.15
2023-01-22T11:48:43.247Z,3.19
2023-01-22T11:51:49.128Z,3.25
2023-01-22T11:54:44.859Z,3.29
2023-01-22T11:57:31.873Z,3.26
2023-01-22T12:00:28.935Z,3.21
2023-01-22T12:03:19.636Z,3.21
2023-01-22T12:06:26.177Z,3.27
2023-01-22T12:09:02.438Z,3.27
2023-01-22T12:11:38.108Z,3.20
2023-01-22T12:14:10.808Z,3.19
2023-01-22T12:16:48.227Z,3.17
2023-01-22T12:19:40.803Z,3.09
2023-01-22T12:22:44.267Z,3.05
2023-01-22T12:25:15.788Z,3.04
2023-01-22T12:27:51.640Z,3.04
2023-01-22T12:30:23.393Z,3.01
2023-01-22T12:32:57.484Z,3.01
2023-01-22T12:35:27.919Z,3.02
2023-01-22T12:38:12.775Z,3.00
2023-01-22T12:41:04.615Z,2.98
2023-01-22T12:43:55.885Z,3.02
2023-01-22T12:46:29.225Z,2.99
2023-01-22T12:49:00.585Z,2.91
2023-01-22T12:51:45.778Z,2.87
2023-01-22T12:54:22.934Z,2.91
2023-01-22T12:56:52.993Z,2.91
2023-01-22T12:59:36.360Z,2.93
2023-01-22T13:02:20.505Z,2.93
2023-01-22T13:04:48.976Z,2.93
2023-01-22T13:07:28.884Z,2.89
2023-01-22T13:10:24.206Z,2.90
2023-01-22T13:12:59.979Z,2.95
2023-01-22T13:15:38.751Z,2.96
2023-01-22T13:18:31.672Z,2.99
2023-01-22T13:21:08.801Z,2.99
2023-01-22T13:23:41.805Z,2.96
2023-01-22T13:26:25.517Z,2.94
2023-01-22T13:29:00.677Z,2.91
2023-01-22T13:31:29.151Z,2.86
2023-01-22T13:34:08.965Z,2.85
2023-01-22T13:36:39.703Z,2.83
2023-01-22T13:39:07.489Z,2.79
2023-01-22T13:41:39.075Z,2.76
2023-01-22T13:44:12.591Z,2.81
2023-01-22T13:46:40.628Z,2.80
2023-01-22T13:49:19.074Z,2.75
2023-01-22T13:51:48.651Z,2.73
2023-01-22T13:54:28.609Z,2.74
2023-01-22T13:56:56.807Z,2.77
2023-01-22T13:59:35.324Z,2.76
2023-01-22T14:02:24.457Z,2.68
2023-01-22T14:04:52.568Z,2.58
2023-01-22T14:07:35.089Z,2.54
2023-01-22T14:10:17.348Z,2.58
2023-01-22T14:12:45.587Z,2.59
2023-01-22T14:15:21.454Z,2.57
2023-01-22T14:17:50.660Z,2.55
2023-01-22T14:20:19.344Z,2.51
2023-01-22T14:22:47.680Z,2.43
2023-01-22T14:25:16.042Z,2.41
2023-01-22T14:27:48.757Z,2.38
2023-01-22T14:30:19.580Z,2.37
2023-01-22T14:32:47.695Z,2.37
2023-01-22T14:35:22.333Z,2.34
2023-01-22T14:37:52.372Z,2.31
2023-01-22T14:40:22.145Z,2.33
2023-01-22T14:42:50.385Z,2.31
2023-01-22T14:45:19.857Z,2.32
2023-01-22T14:47:52.695Z,2.32
2023-01-22T14:50:21.693Z,2.31
2023-01-22T14:52:51.552Z,2.34
2023-01-22T14:55:20.112Z,2.35
2023-01-22T14:57:48.028Z,2.34
2023-01-22T15:00:18.737Z,2.31
2023-01-22T15:02:48.034Z,2.29
2023-01-22T15:05:16.306Z,2.26
2023-01-22T15:07:44.126Z,2.28
2023-01-22T15:10:12.177Z,2.29
2023-01-22T15:12:40.286Z,2.28
2023-01-22T15:15:09.036Z,2.30
2023-01-22T15:17:36.876Z,2.25
2023-01-22T15:20:05.564Z,2.21
2023-01-22T15:22:33.531Z,2.22
2023-01-22T15:25:01.349Z,2.22
2023-01-22T15:27:29.420Z,2.23
2023-01-22T15:29:57.415Z,2.23
2023-01-22T15:32:25.241Z,2.23
2023-01-22T15:34:53.163Z,2.23
2023-01-22T15:37:20.989Z,2.22
2023-01-22T15:39:48.812Z,2.24
2023-01-22T15:42:16.875Z,2.21
2023-01-22T15:44:44.961Z,2.12
2023-01-22T15:47:14.478Z,2.08
2023-01-22T15:49:42.543Z,2.09
2023-01-22T15:52:10.422Z,2.09
2023-01-22T15:54:38.243Z,2.11
2023-01-22T15:57:06.112Z,2.14
2023-01-22T15:59:34.075Z,2.11
2023-01-22T16:02:01.928Z,2.11
2023-01-22T16:04:30.136Z,2.15
2023-01-22T16:06:57.961Z,2.14
2023-01-22T16:09:25.894Z,2.16
2023-01-22T16:11:53.791Z,2.14
2023-01-22T16:14:21.666Z,2.11
2023-01-22T16:16:49.464Z,2.11
2023-01-22T16:19:17.259Z,2.12
2023-01-22T16:21:47.244Z,2.14
2023-01-22T16:24:15.168Z,2.13
2023-01-22T16:26:42.987Z,2.11
2023-01-22T16:29:11.425Z,2.11
2023-01-22T16:31:39.389Z,2.09
2023-01-22T16:34:10.641Z,2.09
2023-01-22T16:36:39.043Z,2.08
2023-01-22T16:39:07.594Z,2.07
2023-01-22T16:41:37.350Z,2.07
2023-01-22T16:44:16.143Z,2.05
2023-01-22T16:46:46.875Z,2.02
2023-01-22T16:49:18.051Z,2.00
2023-01-22T16:51:51.925Z,1.96
2023-01-22T16:54:28.154Z,1.96
2023-01-22T16:57:02.957Z,1.97
2023-01-22T16:59:33.037Z,1.92
2023-01-22T17:02:04.906Z,1.87
2023-01-22T17:04:33.176Z,1.88
2023-01-22T17:07:01.239Z,1.90
2023-01-22T17:09:32.540Z,1.89
2023-01-22T17:12:03.453Z,1.88
2023-01-22T17:14:35.948Z,1.88
2023-01-22T17:17:06.613Z,1.88
2023-01-22T17:19:36.049Z,1.86
2023-01-22T17:22:06.141Z,1.84
2023-01-22T17:24:34.249Z,1.85
2023-01-22T17:27:02.829Z,1.84
2023-01-22T17:29:35.074Z,1.82
2023-01-22T17:32:04.116Z,1.76
2023-01-22T17:34:32.250Z,1.74
2023-01-22T17:37:00.366Z,1.80
2023-01-22T17:39:28.393Z,1.81
2023-01-22T17:41:56.360Z,1.81
2023-01-22T17:44:26.450Z,1.82
2023-01-22T17:46:55.985Z,1.87
2023-01-22T17:49:23.910Z,1.86
2023-01-22T17:51:51.926Z,1.86
2023-01-22T17:54:20.097Z,1.83
2023-01-22T17:56:48.411Z,1.83
2023-01-22T17:59:16.755Z,1.85
2023-01-22T18:01:45.461Z,1.81
2023-01-22T18:04:14.812Z,1.76
2023-01-22T18:06:44.077Z,1.76
2023-01-22T18:09:12.544Z,1.75
2023-01-22T18:11:41.439Z,1.76
2023-01-22T18:14:17.098Z,1.77
2023-01-22T18:16:46.035Z,1.78
2023-01-22T18:19:14.742Z,1.71
2023-01-22T18:21:42.581Z,1.69
2023-01-22T18:24:12.309Z,1.71
2023-01-22T18:26:40.333Z,1.69
2023-01-22T18:29:09.106Z,1.68
2023-01-22T18:31:38.180Z,1.69
2023-01-22T18:34:08.068Z,1.72
2023-01-22T18:36:38.883Z,1.71
2023-01-22T18:39:11.224Z,1.71
2023-01-22T18:41:40.848Z,1.73
2023-01-22T18:44:10.298Z,1.72
2023-01-22T18:46:39.512Z,1.70
2023-01-22T18:49:12.275Z,1.67
2023-01-22T18:51:42.109Z,1.68
2023-01-22T18:54:10.049Z,1.68
2023-01-22T18:56:38.174Z,1.67
2023-01-22T18:59:06.434Z,1.70
2023-01-22T19:01:38.714Z,1.68
2023-01-22T19:04:09.172Z,1.67
2023-01-22T19:06:38.628Z,1.64
2023-01-22T19:09:15.929Z,1.62
2023-01-22T19:11:48.771Z,1.66
2023-01-22T19:14:18.661Z,1.68
2023-01-22T19:16:49.826Z,1.71
2023-01-22T19:19:18.142Z,1.72
2023-01-22T19:21:51.532Z,1.74
2023-01-22T19:24:22.410Z,1.72
2023-01-22T19:26:51.629Z,1.70
2023-01-22T19:29:19.493Z,1.69
2023-01-22T19:31:52.112Z,1.72
2023-01-22T19:34:25.417Z,1.73
2023-01-22T19:36:55.773Z,1.73
2023-01-22T19:39:27.827Z,1.73
2023-01-22T19:41:56.777Z,1.77
2023-01-22T19:44:24.728Z,1.78
2023-01-22T19:46:52.722Z,1.78
2023-01-22T19:49:21.092Z,1.77
2023-01-22T19:51:49.072Z,1.75
2023-01-22T19:54:17.768Z,1.77
2023-01-22T19:56:46.035Z,1.82
2023-01-22T19:59:16.935Z,1.85
2023-01-22T20:01:45.959Z,1.88
2023-01-22T20:04:24.053Z,1.91
2023-01-22T20:07:00.724Z,1.92
2023-01-22T20:09:29.861Z,1.88
2023-01-22T20:11:58.803Z,1.88
2023-01-22T20:14:30.779Z,1.90
2023-01-22T20:17:01.969Z,1.90
2023-01-22T20:19:30.857Z,1.90
2023-01-22T20:22:00.505Z,1.87
2023-01-22T20:24:28.539Z,1.85
2023-01-22T20:26:58.242Z,1.82
2023-01-22T20:29:26.513Z,1.85
2023-01-22T20:31:55.186Z,1.84
2023-01-22T20:34:23.157Z,1.85
2023-01-22T20:36:51.094Z,1.87
2023-01-22T20:39:19.784Z,1.88
2023-01-22T20:41:48.095Z,1.88
2023-01-22T20:44:16.560Z,1.87
2023-01-22T20:46:44.912Z,1.85
2023-01-22T20:49:13.476Z,1.89
2023-01-22T20:51:42.727Z,1.92
2023-01-22T20:54:10.863Z,1.90
2023-01-22T20:56:38.836Z,1.94
2023-01-22T20:59:11.754Z,1.97
2023-01-22T21:01:40.166Z,1.96
2023-01-22T21:04:08.401Z,1.96
2023-01-22T21:06:37.447Z,1.99
2023-01-22T21:09:06.833Z,2.00
2023-01-22T21:11:36.203Z,2.01
2023-01-22T21:14:06.175Z,1.99
2023-01-22T21:16:37.665Z,2.00
2023-01-22T21:19:12.508Z,2.01
2023-01-22T21:21:40.372Z,2.01
2023-01-22T21:24:08.651Z,2.03
2023-01-22T21:26:37.104Z,2.05
2023-01-22T21:29:17.568Z,2.04
2023-01-22T21:31:49.643Z,2.01
2023-01-22T21:34:20.756Z,2.03
2023-01-22T21:36:50.073Z,2.01
2023-01-22T21:39:24.712Z,2.01
2023-01-22T21:42:12.904Z,2.00
2023-01-22T21:44:59.529Z,2.01
2023-01-22T21:47:28.542Z,1.96
2023-01-22T21:49:56.623Z,1.95
2023-01-22T21:52:24.674Z,1.96
2023-01-22T21:54:52.531Z,1.93
2023-01-22T21:57:21.310Z,1.91
2023-01-22T21:59:49.299Z,1.89
2023-01-22T22:02:22.350Z,1.89
2023-01-22T22:04:50.298Z,1.88
2023-01-22T22:07:18.449Z,1.91
2023-01-22T22:09:46.702Z,1.95
2023-01-22T22:12:14.719Z,1.95
2023-01-22T22:14:42.625Z,1.95
2023-01-22T22:17:10.931Z,1.94
2023-01-22T22:19:39.072Z,1.96
2023-01-22T22:22:07.129Z,1.95
2023-01-22T22:24:35.075Z,1.95
2023-01-22T22:27:02.918Z,1.95
2023-01-22T22:29:30.763Z,1.93
2023-01-22T22:31:58.587Z,1.90
2023-01-22T22:34:26.434Z,1.89
2023-01-22T22:36:54.329Z,1.89
2023-01-22T22:39:22.129Z,1.85
2023-01-22T22:41:50.166Z,1.85
2023-01-22T22:44:18.068Z,1.86
2023-01-22T22:47:03.064Z,1.90
2023-01-22T22:49:30.886Z,1.87
2023-01-22T22:51:58.726Z,1.88
2023-01-22T22:54:27.575Z,1.91
2023-01-22T22:56:55.687Z,1.93
2023-01-22T22:59:23.788Z,1.93
2023-01-22T23:01:51.942Z,1.94
2023-01-22T23:04:19.843Z,1.96
2023-01-22T23:06:48.285Z,1.95
2023-01-22T23:09:20.665Z,1.96
2023-01-22T23:11:52.188Z,1.98
2023-01-22T23:14:20.399Z,2.01
2023-01-22T23:16:49.013Z,2.03
2023-01-22T23:19:21.786Z,2.01
2023-01-22T23:21:51.677Z,2.00
2023-01-22T23:24:20.238Z,1.94
2023-01-22T23:26:48.292Z,1.97
2023-01-22T23:29:19.178Z,2.01
2023-01-22T23:31:47.054Z,2.04
2023-01-22T23:34:17.426Z,2.03
2023-01-22T23:36:47.191Z,2.01
2023-01-22T23:39:17.445Z,1.97
2023-01-22T23:41:45.900Z,1.97
2023-01-22T23:44:13.833Z,1.96
2023-01-22T23:46:42.122Z,1.96
2023-01-22T23:49:10.568Z,1.96
2023-01-22T23:51:41.349Z,1.97
2023-01-22T23:54:09.618Z,1.94
2023-01-22T23:56:37.778Z,1.92
2023-01-22T23:59:05.678Z,1.91
